createdAt,value
2023-02-05T00:02:54.771Z,-3.34
2023-02-05T00:06:22.213Z,-3.37
2023-02-05T00:09:49.592Z,-3.37
2023-02-05T00:13:16.260Z,-3.37
2023-02-05T00:16:43.614Z,-3.39
2023-02-05T00:20:13.422Z,-3.42
2023-02-05T00:23:41.360Z,-3.47
2023-02-05T00:27:08.155Z,-3.55
2023-02-05T00:30:41.688Z,-3.63
2023-02-05T00:34:09.866Z,-3.72
2023-02-05T00:37:37.929Z,-3.82
2023-02-05T00:41:06.783Z,-3.93
2023-02-05T00:44:34.613Z,-4.03
2023-02-05T00:48:02.146Z,-4.13
2023-02-05T00:51:29.111Z,-4.24
2023-02-05T00:54:56.800Z,-4.34
2023-02-05T00:58:24.005Z,-4.44
2023-02-05T01:01:51.577Z,-4.54
2023-02-05T01:05:22.869Z,-4.65
2023-02-05T01:08:50.761Z,-4.72
2023-02-05T01:12:18.296Z,-4.77
2023-02-05T01:15:45.736Z,-4.80
2023-02-05T01:19:16.697Z,-4.80
2023-02-05T01:22:44.208Z,-4.79
2023-02-05T01:26:11.092Z,-4.77
2023-02-05T01:29:37.935Z,-4.73
2023-02-05T01:33:05.224Z,-4.71
2023-02-05T01:36:35.572Z,-4.67
2023-02-05T01:40:03.810Z,-4.61
2023-02-05T01:43:31.570Z,-4.62
2023-02-05T01:47:02.849Z,-4.59
2023-02-05T01:50:38.482Z,-4.55
2023-02-05T01:54:07.309Z,-4.43
2023-02-05T01:57:38.797Z,-4.36
2023-02-05T02:01:06.430Z,-4.32
2023-02-05T02:04:39.891Z,-4.29
2023-02-05T02:08:07.924Z,-4.25
2023-02-05T02:11:39.960Z,-4.19
2023-02-05T02:15:11.866Z,-4.16
2023-02-05T02:18:40.928Z,-4.13
2023-02-05T02:22:28.389Z,-4.13
2023-02-05T02:26:27.522Z,-4.16
2023-02-05T02:29:59.990Z,-4.22
2023-02-05T02:33:34.616Z,-4.27
2023-02-05T02:37:08.687Z,-4.29
2023-02-05T02:40:42.558Z,-4.26
2023-02-05T02:44:16.671Z,-4.24
2023-02-05T02:47:48.592Z,-4.19
2023-02-05T02:51:21.119Z,-4.17
2023-02-05T02:54:55.181Z,-4.16
2023-02-05T02:58:26.766Z,-4.13
2023-02-05T03:02:00.140Z,-4.09
2023-02-05T03:05:29.474Z,-4.10
2023-02-05T03:09:01.885Z,-4.11
2023-02-05T03:12:29.676Z,-4.13
2023-02-05T03:15:58.232Z,-4.18
2023-02-05T03:19:28.826Z,-4.24
2023-02-05T03:22:59.430Z,-4.30
2023-02-05T03:26:29.389Z,-4.36
2023-02-05T03:30:11.115Z,-4.40
2023-02-05T03:33:48.531Z,-4.40
2023-02-05T03:37:24.257Z,-4.40
2023-02-05T03:40:57.267Z,-4.42
2023-02-05T03:44:39.833Z,-4.47
2023-02-05T03:48:23.956Z,-4.54
2023-02-05T03:51:59.018Z,-4.64
2023-02-05T03:55:32.057Z,-4.73
2023-02-05T03:59:04.143Z,-4.77
2023-02-05T04:02:31.881Z,-4.83
2023-02-05T04:05:59.068Z,-4.88
2023-02-05T04:09:28.604Z,-4.90
2023-02-05T04:12:56.112Z,-4.94
2023-02-05T04:16:25.925Z,-4.94
2023-02-05T04:19:54.747Z,-4.93
2023-02-05T04:23:22.308Z,-4.94
2023-02-05T04:26:51.521Z,-4.98
2023-02-05T04:30:19.070Z,-5.04
2023-02-05T04:33:47.003Z,-5.13
2023-02-05T04:37:14.983Z,-5.23
2023-02-05T04:40:41.665Z,-5.31
2023-02-05T04:44:08.322Z,-5.36
2023-02-05T04:47:36.297Z,-5.43
2023-02-05T04:51:06.771Z,-5.51
2023-02-05T04:54:33.684Z,-5.62
2023-02-05T04:58:01.620Z,-5.71
2023-02-05T05:01:28.796Z,-5.75
2023-02-05T05:04:55.984Z,-5.78
2023-02-05T05:08:23.242Z,-5.81
2023-02-05T05:11:49.989Z,-5.82
2023-02-05T05:15:16.732Z,-5.85
2023-02-05T05:18:44.660Z,-5.90
2023-02-05T05:22:12.366Z,-5.96
2023-02-05T05:25:46.836Z,-5.99
2023-02-05T05:29:14.373Z,-5.98
2023-02-05T05:32:41.982Z,-6.00
2023-02-05T05:36:10.822Z,-6.01
2023-02-05T05:39:55.715Z,-6.05
2023-02-05T05:43:41.676Z,-6.07
2023-02-05T05:47:08.799Z,-6.11
2023-02-05T05:50:35.372Z,-6.18
2023-02-05T05:54:02.404Z,-6.27
2023-02-05T05:57:29.222Z,-6.30
2023-02-05T06:00:57.742Z,-6.31
2023-02-05T06:04:25.578Z,-6.30
2023-02-05T06:07:52.222Z,-6.32
2023-02-05T06:11:18.980Z,-6.37
2023-02-05T06:14:45.596Z,-6.38
2023-02-05T06:18:12.580Z,-6.38
2023-02-05T06:21:39.526Z,-6.33
2023-02-05T06:25:06.843Z,-6.30
2023-02-05T06:28:33.568Z,-6.27
2023-02-05T06:32:00.398Z,-6.25
2023-02-05T06:35:27.353Z,-6.26
2023-02-05T06:38:54.037Z,-6.25
2023-02-05T06:42:20.758Z,-6.20
2023-02-05T06:45:47.354Z,-6.16
2023-02-05T06:49:13.981Z,-6.10
2023-02-05T06:52:40.884Z,-5.98
2023-02-05T06:56:09.604Z,-5.94
2023-02-05T06:59:36.107Z,-5.84
2023-02-05T07:03:03.238Z,-5.77
2023-02-05T07:06:30.350Z,-5.73
2023-02-05T07:09:57.246Z,-5.73
2023-02-05T07:13:24.356Z,-5.72
2023-02-05T07:16:51.937Z,-5.75
2023-02-05T07:20:19.850Z,-5.78
2023-02-05T07:23:46.901Z,-5.77
2023-02-05T07:27:13.881Z,-5.73
2023-02-05T07:30:40.666Z,-5.66
2023-02-05T07:34:07.130Z,-5.61
2023-02-05T07:37:34.092Z,-5.59
2023-02-05T07:41:04.551Z,-5.61
2023-02-05T07:44:32.236Z,-5.60
2023-02-05T07:47:59.157Z,-5.57
2023-02-05T07:51:27.216Z,-5.52
2023-02-05T07:54:54.924Z,-5.43
2023-02-05T07:58:22.194Z,-5.32
2023-02-05T08:01:49.320Z,-5.19
2023-02-05T08:05:16.170Z,-5.05
2023-02-05T08:08:45.292Z,-4.91
2023-02-05T08:12:12.799Z,-4.80
2023-02-05T08:15:41.062Z,-4.70
2023-02-05T08:19:08.044Z,-4.62
2023-02-05T08:22:35.662Z,-4.51
2023-02-05T08:26:03.190Z,-4.37
2023-02-05T08:29:33.036Z,-4.19
2023-02-05T08:33:00.061Z,-4.01
2023-02-05T08:36:27.459Z,-3.81
2023-02-05T08:39:54.848Z,-3.60
2023-02-05T08:43:23.257Z,-3.38
2023-02-05T08:46:50.611Z,-3.18
2023-02-05T08:50:17.292Z,-2.99
2023-02-05T08:53:44.508Z,-2.80
2023-02-05T08:57:12.030Z,-2.65
2023-02-05T09:00:40.342Z,-2.51
2023-02-05T09:04:07.989Z,-2.37
2023-02-05T09:07:34.953Z,-2.27
2023-02-05T09:11:01.763Z,-2.16
2023-02-05T09:14:28.901Z,-2.08
2023-02-05T09:17:55.855Z,-1.99
2023-02-05T09:21:22.808Z,-1.91
2023-02-05T09:24:51.032Z,-1.82
2023-02-05T09:28:18.255Z,-1.72
2023-02-05T09:31:47.607Z,-1.64
2023-02-05T09:35:16.225Z,-1.62
2023-02-05T09:38:45.826Z,-1.57
2023-02-05T09:42:21.825Z,-1.47
2023-02-05T09:45:59.335Z,-1.35
2023-02-05T09:49:32.738Z,-1.28
2023-02-05T09:53:03.965Z,-1.13
2023-02-05T09:56:33.317Z,-1.07
2023-02-05T10:00:01.615Z,-1.06
2023-02-05T10:03:33.414Z,-1.03
2023-02-05T10:07:21.977Z,-0.86
2023-02-05T10:10:51.693Z,-0.73
2023-02-05T10:14:28.747Z,-0.64
2023-02-05T10:18:07.791Z,-0.51
2023-02-05T10:21:50.484Z,-0.43
2023-02-05T10:25:50.403Z,-0.39
2023-02-05T10:29:29.500Z,-0.35
2023-02-05T10:33:00.411Z,-0.23
2023-02-05T10:36:28.846Z,-0.13
2023-02-05T10:40:00.463Z,-0.10
2023-02-05T10:43:32.641Z,-0.06
2023-02-05T10:47:07.100Z,-0.03
2023-02-05T10:50:46.187Z,0.05
2023-02-05T10:54:22.781Z,0.11
2023-02-05T10:57:50.051Z,0.19
2023-02-05T11:01:19.373Z,0.23
2023-02-05T11:04:51.309Z,0.30
2023-02-05T11:08:36.276Z,0.42
2023-02-05T11:12:05.518Z,0.49
2023-02-05T11:15:34.341Z,0.59
2023-02-05T11:19:02.603Z,0.70
2023-02-05T11:22:31.864Z,0.72
2023-02-05T11:26:00.614Z,0.75
2023-02-05T11:29:27.921Z,0.90
2023-02-05T11:32:56.176Z,1.05
2023-02-05T11:36:26.290Z,1.21
2023-02-05T11:39:55.338Z,1.36
2023-02-05T11:43:28.242Z,1.40
2023-02-05T11:46:57.245Z,1.37
2023-02-05T11:50:29.274Z,1.40
2023-02-05T11:54:00.814Z,1.50
2023-02-05T11:57:41.978Z,1.60
2023-02-05T12:01:25.864Z,1.71
2023-02-05T12:04:56.768Z,1.79
2023-02-05T12:08:33.691Z,1.87
2023-02-05T12:12:11.464Z,1.93
2023-02-05T12:15:47.230Z,1.93
2023-02-05T12:19:21.692Z,1.90
2023-02-05T12:23:07.937Z,1.92
2023-02-05T12:26:38.853Z,1.90
2023-02-05T12:30:25.011Z,1.88
2023-02-05T12:34:24.644Z,1.89
2023-02-05T12:38:00.272Z,1.88
2023-02-05T12:41:38.530Z,1.90
2023-02-05T12:45:26.384Z,1.90
2023-02-05T12:49:20.647Z,1.95
2023-02-05T12:53:03.336Z,1.98
2023-02-05T12:56:45.187Z,2.00
2023-02-05T13:00:24.418Z,2.06
2023-02-05T13:03:56.637Z,2.08
2023-02-05T13:07:35.367Z,2.06
2023-02-05T13:11:15.636Z,2.02
2023-02-05T13:14:51.192Z,2.04
2023-02-05T13:18:24.409Z,2.02
2023-02-05T13:22:12.309Z,2.04
2023-02-05T13:26:00.972Z,2.05
2023-02-05T13:29:34.350Z,1.96
2023-02-05T13:33:03.260Z,1.91
2023-02-05T13:48:05.306Z,2.75
2023-02-05T13:52:00.671Z,2.68
2023-02-05T13:55:49.559Z,2.51
2023-02-05T13:59:27.183Z,2.36
2023-02-05T14:03:07.233Z,2.23
2023-02-05T14:06:37.809Z,2.14
2023-02-05T14:10:28.006Z,2.06
2023-02-05T14:14:36.811Z,1.96
2023-02-05T14:18:06.936Z,1.85
2023-02-05T14:22:01.740Z,1.77
2023-02-05T14:26:05.155Z,1.70
2023-02-05T14:29:45.176Z,1.63
2023-02-05T14:33:30.127Z,1.56
2023-02-05T14:36:58.346Z,1.50
2023-02-05T14:40:30.099Z,1.45
2023-02-05T14:44:01.551Z,1.40
2023-02-05T14:47:33.219Z,1.33
2023-02-05T14:51:20.703Z,1.25
2023-02-05T14:54:51.763Z,1.17
2023-02-05T14:58:32.068Z,1.11
2023-02-05T15:02:00.245Z,1.05
2023-02-05T15:05:33.677Z,1.00
2023-02-05T15:09:06.418Z,0.95
2023-02-05T15:12:55.969Z,0.89
2023-02-05T15:16:27.064Z,0.81
2023-02-05T15:19:59.986Z,0.74
2023-02-05T15:23:36.823Z,0.68
2023-02-05T15:27:08.584Z,0.63
2023-02-05T15:30:50.145Z,0.56
2023-02-05T15:34:35.363Z,0.52
2023-02-05T15:38:10.472Z,0.46
2023-02-05T15:41:39.078Z,0.42
2023-02-05T15:48:44.513Z,0.33
2023-02-05T15:52:17.451Z,0.23
2023-02-05T15:55:44.629Z,0.13
2023-02-05T15:59:18.656Z,0.02
2023-02-05T16:02:57.981Z,-0.09
2023-02-05T16:06:27.562Z,-0.20
2023-02-05T16:09:57.581Z,-0.29
2023-02-05T16:13:25.306Z,-0.38
2023-02-05T16:17:02.590Z,-0.48
2023-02-05T16:20:34.007Z,-0.58
2023-02-05T16:24:04.011Z,-0.70
2023-02-05T16:27:41.066Z,-0.81
2023-02-05T16:31:09.514Z,-0.90
2023-02-05T16:34:40.696Z,-0.99
2023-02-05T16:38:14.911Z,-1.08
2023-02-05T16:41:45.394Z,-1.16
2023-02-05T16:45:29.352Z,-1.23
2023-02-05T16:49:01.994Z,-1.30
2023-02-05T16:52:34.662Z,-1.39
2023-02-05T16:56:12.939Z,-1.46
2023-02-05T16:59:54.070Z,-1.53
2023-02-05T17:03:21.767Z,-1.60
2023-02-05T17:06:49.534Z,-1.64
2023-02-05T17:10:24.732Z,-1.65
2023-02-05T17:13:51.905Z,-1.62
2023-02-05T17:17:22.412Z,-1.63
2023-02-05T17:20:50.130Z,-1.63
2023-02-05T17:24:19.268Z,-1.62
2023-02-05T17:27:45.814Z,-1.64
2023-02-05T17:31:15.656Z,-1.69
2023-02-05T17:34:45.279Z,-1.74
2023-02-05T17:38:11.896Z,-1.78
2023-02-05T17:41:59.456Z,-1.82
2023-02-05T17:45:29.560Z,-1.88
2023-02-05T17:49:00.469Z,-1.92
2023-02-05T17:52:28.636Z,-1.97
2023-02-05T17:55:57.120Z,-2.01
2023-02-05T17:59:27.453Z,-2.06
2023-02-05T18:03:01.581Z,-2.11
2023-02-05T18:06:29.138Z,-2.18
2023-02-05T18:10:00.218Z,-2.25
2023-02-05T18:13:29.527Z,-2.32
2023-02-05T18:16:57.582Z,-2.38
2023-02-05T18:20:27.819Z,-2.43
2023-02-05T18:23:56.063Z,-2.47
2023-02-05T18:27:24.409Z,-2.50
2023-02-05T18:31:03.719Z,-2.51
2023-02-05T18:34:31.932Z,-2.53
2023-02-05T18:38:00.640Z,-2.56
2023-02-05T18:41:31.222Z,-2.57
2023-02-05T18:44:59.576Z,-2.58
2023-02-05T18:48:29.156Z,-2.57
2023-02-05T18:51:59.980Z,-2.54
2023-02-05T18:55:29.953Z,-2.49
2023-02-05T18:59:06.127Z,-2.45
2023-02-05T19:02:36.056Z,-2.44
2023-02-05T19:06:08.985Z,-2.45
2023-02-05T19:09:40.491Z,-2.47
2023-02-05T19:13:09.761Z,-2.54
2023-02-05T19:16:37.580Z,-2.60
2023-02-05T19:20:11.043Z,-2.65
2023-02-05T19:23:43.565Z,-2.73
2023-02-05T19:27:14.758Z,-2.75
2023-02-05T19:30:43.140Z,-2.78
2023-02-05T19:34:12.574Z,-2.80
2023-02-05T19:37:43.749Z,-2.85
2023-02-05T19:41:14.474Z,-2.91
2023-02-05T19:44:43.646Z,-2.99
2023-02-05T19:48:12.489Z,-3.05
2023-02-05T19:51:43.949Z,-3.10
2023-02-05T19:55:16.209Z,-3.15
2023-02-05T19:58:49.419Z,-3.19
2023-02-05T20:02:20.032Z,-3.23
2023-02-05T20:05:53.144Z,-3.27
2023-02-05T20:09:22.029Z,-3.30
2023-02-05T20:12:59.956Z,-3.30
2023-02-05T20:16:27.296Z,-3.28
2023-02-05T20:20:02.538Z,-3.26
2023-02-05T20:23:39.376Z,-3.25
2023-02-05T20:27:08.182Z,-3.23
2023-02-05T20:30:55.232Z,-3.20
2023-02-05T20:34:26.202Z,-3.19
2023-02-05T20:37:54.553Z,-3.21
2023-02-05T20:41:23.704Z,-3.23
2023-02-05T20:44:53.827Z,-3.28
2023-02-05T20:48:21.798Z,-3.34
2023-02-05T20:51:49.281Z,-3.42
2023-02-05T20:55:17.905Z,-3.47
2023-02-05T20:58:51.241Z,-3.54
2023-02-05T21:02:24.517Z,-3.61
2023-02-05T21:05:53.686Z,-3.66
2023-02-05T21:09:23.990Z,-3.70
2023-02-05T21:12:54.068Z,-3.76
2023-02-05T21:16:24.352Z,-3.81
2023-02-05T21:19:52.427Z,-3.87
2023-02-05T21:23:22.195Z,-3.94
2023-02-05T21:26:54.168Z,-3.99
2023-02-05T21:30:27.797Z,-4.03
2023-02-05T21:34:01.103Z,-4.07
2023-02-05T21:37:30.763Z,-4.13
2023-02-05T21:40:59.182Z,-4.14
2023-02-05T21:44:26.678Z,-4.17
2023-02-05T21:47:54.139Z,-4.19
2023-02-05T21:51:23.503Z,-4.16
2023-02-05T21:54:51.809Z,-4.13
2023-02-05T21:58:19.522Z,-4.09
2023-02-05T22:01:47.627Z,-4.03
2023-02-05T22:05:16.368Z,-3.94
2023-02-05T22:08:48.952Z,-3.83
2023-02-05T22:12:16.171Z,-3.75
2023-02-05T22:15:44.686Z,-3.72
2023-02-05T22:19:13.955Z,-3.67
2023-02-05T22:22:42.264Z,-3.60
2023-02-05T22:26:12.971Z,-3.59
2023-02-05T22:29:41.360Z,-3.58
2023-02-05T22:33:12.417Z,-3.60
2023-02-05T22:36:42.187Z,-3.61
2023-02-05T22:40:11.351Z,-3.62
2023-02-05T22:43:43.494Z,-3.63
2023-02-05T22:47:16.517Z,-3.64
2023-02-05T22:50:48.731Z,-3.68
2023-02-05T22:54:16.837Z,-3.72
2023-02-05T22:57:44.888Z,-3.78
2023-02-05T23:01:14.225Z,-3.80
2023-02-05T23:04:41.375Z,-3.81
2023-02-05T23:08:12.051Z,-3.82
2023-02-05T23:11:42.130Z,-3.85
2023-02-05T23:15:12.520Z,-3.88
2023-02-05T23:18:42.273Z,-3.92
2023-02-05T23:22:10.755Z,-3.93
2023-02-05T23:25:41.875Z,-3.93
2023-02-05T23:29:19.586Z,-3.94
2023-02-05T23:33:01.589Z,-3.97
2023-02-05T23:36:30.894Z,-3.95
2023-02-05T23:39:59.556Z,-3.92
2023-02-05T23:43:27.629Z,-3.87
2023-02-05T23:46:58.269Z,-3.79
2023-02-05T23:50:28.774Z,-3.75
2023-02-05T23:53:57.913Z,-3.73
2023-02-05T23:57:29.468Z,-3.72
